Time;durP1;ratioP1;P1;durP2;ratioP2;P2;SDS_P1;SDS_P2;PMS_P1;PMS_P2;Temp;Humidity;BMP_temperature;BMP_pressure;BME280_temperature;BME280_humidity;BME280_pressure;Samples;Min_cycle;Max_cycle;Signal;HPM_P1;HPM_P2
2024/01/22 00:01:04;;;;;;;7.70;5.30;;;;;;;18.77;37.41;102861.91;5017187;28;20049;-59
2024/01/22 00:03:32;;;;;;;6.70;5.20;;;;;;;18.74;37.50;102846.81;5022870;28;20045;-59
2024/01/22 00:05:59;;;;;;;6.90;5.43;;;;;;;18.74;37.44;102849.50;5016708;28;20056;-59
2024/01/22 00:08:26;;;;;;;5.88;5.28;;;;;;;18.74;37.44;102845.94;5016612;28;20045;-60
2024/01/22 00:10:54;;;;;;;5.93;4.93;;;;;;;18.73;37.35;102834.34;5017330;28;20053;-61
2024/01/22 00:13:21;;;;;;;6.07;4.95;;;;;;;18.72;37.28;102839.81;5015287;28;20052;-63
2024/01/22 00:15:49;;;;;;;6.78;4.57;;;;;;;18.72;37.41;102838.00;5017261;28;20053;-61
2024/01/22 00:18:16;;;;;;;5.40;4.40;;;;;;;18.72;37.41;102832.63;5019110;28;20050;-60
2024/01/22 00:20:44;;;;;;;5.03;4.18;;;;;;;18.72;37.12;102837.13;5015830;28;20102;-60
2024/01/22 00:23:12;;;;;;;5.70;4.70;;;;;;;18.69;37.08;102835.44;5028701;28;20041;-60
2024/01/22 00:25:39;;;;;;;6.47;4.95;;;;;;;18.69;37.11;102842.63;5021726;28;20068;-60
2024/01/22 00:28:07;;;;;;;6.70;4.85;;;;;;;18.68;37.02;102836.38;5037232;28;20048;-60
2024/01/22 00:30:34;;;;;;;6.03;4.50;;;;;;;18.67;36.91;102826.56;5036450;28;20056;-60
2024/01/22 00:33:02;;;;;;;6.35;4.93;;;;;;;18.67;36.88;102828.41;5037172;28;20042;-59
2024/01/22 00:35:29;;;;;;;6.32;4.25;;;;;;;18.65;36.94;102825.81;5036329;28;20506;-59
2024/01/22 00:37:56;;;;;;;7.05;5.22;;;;;;;18.64;36.83;102832.13;5039826;28;20037;-60
2024/01/22 00:40:24;;;;;;;6.65;4.88;;;;;;;18.63;36.75;102825.00;5036733;28;20049;-61
2024/01/22 00:42:51;;;;;;;6.15;4.68;;;;;;;18.63;36.74;102825.00;5028369;28;20046;-61
2024/01/22 00:45:19;;;;;;;5.93;4.95;;;;;;;18.62;36.85;102825.94;5032076;28;20045;-61
2024/01/22 00:47:46;;;;;;;6.63;4.93;;;;;;;18.62;36.74;102830.44;5023956;28;20053;-60
2024/01/22 00:50:14;;;;;;;5.85;3.97;;;;;;;18.60;36.69;102819.81;5016555;28;20153;-61
2024/01/22 00:52:41;;;;;;;7.55;5.18;;;;;;;18.59;36.67;102815.38;5024469;28;20046;-61
2024/01/22 00:55:08;;;;;;;6.75;4.65;;;;;;;18.59;36.65;102812.69;5016766;28;20057;-61
2024/01/22 00:57:39;;;;;;;6.55;4.70;;;;;;;18.59;36.64;102812.69;5019571;28;20056;-60
2024/01/22 01:00:07;;;;;;;6.78;4.80;;;;;;;18.58;36.73;102808.28;5015028;28;20069;-61
2024/01/22 01:02:35;;;;;;;5.38;4.32;;;;;;;18.57;36.62;102817.28;5017325;28;20050;-61
2024/01/22 01:05:03;;;;;;;5.80;4.55;;;;;;;18.56;36.67;102818.25;5017074;28;20056;-61
2024/01/22 01:07:30;;;;;;;5.85;4.30;;;;;;;18.55;36.56;102819.16;5028044;28;20061;-59
2024/01/22 01:09:58;;;;;;;6.30;4.45;;;;;;;18.55;36.66;102829.88;5013164;28;20043;-59
2024/01/22 01:12:25;;;;;;;6.38;4.63;;;;;;;18.53;36.65;102827.28;5016640;28;20045;-59
2024/01/22 01:14:53;;;;;;;6.20;4.57;;;;;;;18.53;36.58;102823.75;5016540;28;20093;-59
2024/01/22 01:17:20;;;;;;;6.38;4.95;;;;;;;18.53;36.76;102829.97;5020738;28;20060;-59
2024/01/22 01:19:47;;;;;;;4.85;4.15;;;;;;;18.52;36.62;102830.06;5016149;28;20045;-59
2024/01/22 01:22:15;;;;;;;6.72;4.00;;;;;;;18.52;36.67;102830.06;5016550;28;20476;-59
2024/01/22 01:24:42;;;;;;;5.80;4.05;;;;;;;18.51;36.67;102828.31;5016244;28;20041;-59
2024/01/22 01:27:10;;;;;;;5.60;4.55;;;;;;;18.51;36.73;102833.66;5016731;28;20045;-59
2024/01/22 01:29:39;;;;;;;5.13;3.90;;;;;;;18.51;36.64;102828.31;5016054;28;20057;-59
2024/01/22 01:32:06;;;;;;;7.05;4.45;;;;;;;18.49;36.52;102831.09;5016127;28;20061;-59
2024/01/22 01:34:34;;;;;;;6.65;4.95;;;;;;;18.49;36.50;102819.50;5015338;28;20057;-59
2024/01/22 01:37:01;;;;;;;5.10;4.00;;;;;;;18.49;36.61;102819.50;5017867;28;20053;-59
2024/01/22 01:39:29;;;;;;;6.00;4.68;;;;;;;18.48;36.46;102817.75;5016162;28;20086;-60
2024/01/22 01:41:56;;;;;;;5.07;4.18;;;;;;;18.47;36.43;102816.00;5016723;28;20488;-61
2024/01/22 01:44:39;;;;;;;5.70;4.03;;;;;;;18.47;36.40;102827.63;5016277;28;20420;-61
2024/01/22 01:47:06;;;;;;;5.30;4.18;;;;;;;18.46;36.53;102825.88;5017464;28;20060;-59
2024/01/22 01:49:34;;;;;;;7.55;4.63;;;;;;;18.46;36.52;102817.81;5016445;28;20046;-60
2024/01/22 01:52:03;;;;;;;4.72;4.13;;;;;;;18.45;36.50;102816.09;5016165;28;20038;-61
2024/01/22 01:54:30;;;;;;;5.70;4.22;;;;;;;18.45;36.47;102812.53;5017325;28;20503;-61
2024/01/22 01:56:58;;;;;;;6.25;4.43;;;;;;;18.43;36.56;102814.41;5017199;28;20054;-60
2024/01/22 01:59:25;;;;;;;5.65;4.20;;;;;;;18.42;36.43;102812.69;5015893;28;20042;-59
2024/01/22 02:01:53;;;;;;;6.32;3.97;;;;;;;18.42;36.33;102807.31;5015955;28;20053;-59
2024/01/22 02:04:20;;;;;;;5.22;3.97;;;;;;;18.40;36.55;102810.09;5017809;28;20054;-59
2024/01/22 02:06:47;;;;;;;6.00;4.45;;;;;;;18.39;36.48;102810.16;5016880;28;20522;-59
2024/01/22 02:09:15;;;;;;;6.28;3.97;;;;;;;18.39;36.48;102807.47;5015623;28;20038;-59
2024/01/22 02:11:42;;;;;;;5.97;4.40;;;;;;;18.38;36.35;102801.25;5013361;28;20050;-59
2024/01/22 02:14:10;;;;;;;4.75;3.72;;;;;;;18.38;36.39;102809.28;5019174;28;20069;-59
2024/01/22 02:16:37;;;;;;;5.22;4.07;;;;;;;18.38;36.32;102806.59;5017377;28;20050;-59
2024/01/22 02:19:04;;;;;;;4.32;3.70;;;;;;;18.39;36.38;102804.78;5016632;28;20046;-60
2024/01/22 02:21:32;;;;;;;4.07;3.60;;;;;;;18.37;36.35;102799.53;5016072;28;20046;-61
2024/01/22 02:23:59;;;;;;;5.13;3.75;;;;;;;18.38;36.29;102797.69;5018735;28;20072;-61
2024/01/22 02:26:27;;;;;;;5.93;4.32;;;;;;;18.37;36.50;102795.97;5029543;28;20041;-60
2024/01/22 02:28:54;;;;;;;6.05;4.22;;;;;;;18.37;36.46;102798.66;5025206;28;20042;-59
2024/01/22 02:31:22;;;;;;;5.05;3.60;;;;;;;18.36;36.32;102792.44;5016107;28;20057;-58
2024/01/22 02:33:49;;;;;;;4.55;3.55;;;;;;;18.36;36.43;102786.19;5018523;28;20057;-58
2024/01/22 02:36:17;;;;;;;5.15;3.88;;;;;;;18.36;36.32;102791.56;5018141;28;20052;-58
2024/01/22 02:38:44;;;;;;;4.65;3.47;;;;;;;18.35;36.35;102789.81;5019873;28;20145;-59
2024/01/22 02:41:11;;;;;;;5.55;4.05;;;;;;;18.36;36.26;102788.88;5019444;28;20540;-59
2024/01/22 02:43:39;;;;;;;5.22;3.78;;;;;;;18.37;36.41;102790.63;5021773;28;20050;-59
2024/01/22 02:46:06;;;;;;;5.40;4.05;;;;;;;18.36;36.34;102788.88;5021294;28;20076;-59
2024/01/22 02:48:33;;;;;;;4.88;3.70;;;;;;;18.35;36.46;102781.75;5019636;28;20053;-59
2024/01/22 02:51:01;;;;;;;4.47;3.33;;;;;;;18.33;36.58;102783.66;5019509;28;20508;-59
2024/01/22 02:53:29;;;;;;;4.55;3.50;;;;;;;18.32;36.36;102782.81;5020479;28;20050;-59
2024/01/22 02:55:56;;;;;;;5.00;3.42;;;;;;;18.33;36.62;102773.81;5020467;28;20376;-58
2024/01/22 02:58:24;;;;;;;4.22;3.58;;;;;;;18.33;36.62;102781.00;5019234;28;20038;-59
2024/01/22 03:00:51;;;;;;;4.60;3.38;;;;;;;18.33;36.45;102773.81;5019334;28;20042;-59
2024/01/22 03:03:18;;;;;;;4.30;3.28;;;;;;;18.32;36.56;102764.03;5025654;28;20068;-59
2024/01/22 03:05:46;;;;;;;4.70;3.25;;;;;;;18.31;36.46;102762.31;5020219;28;20041;-58
2024/01/22 03:08:14;;;;;;;4.13;3.08;;;;;;;18.30;36.55;102763.22;5019895;28;20496;-58
2024/01/22 03:10:41;;;;;;;5.05;3.40;;;;;;;18.30;36.62;102771.28;5020984;28;20034;-58
2024/01/22 03:13:09;;;;;;;4.95;3.35;;;;;;;18.29;36.78;102775.78;5018152;28;20045;-58
2024/01/22 03:15:36;;;;;;;4.40;3.33;;;;;;;18.31;36.86;102780.19;5021196;28;20048;-58
2024/01/22 03:18:04;;;;;;;4.80;3.30;;;;;;;18.28;36.78;102770.50;5023654;28;20049;-58
2024/01/22 03:20:31;;;;;;;4.88;3.20;;;;;;;18.28;36.71;102770.50;5018896;28;20050;-58
2024/01/22 03:22:59;;;;;;;4.65;3.08;;;;;;;18.27;36.71;102758.91;5021091;28;20046;-59
2024/01/22 03:25:26;;;;;;;4.68;3.20;;;;;;;18.26;36.77;102750.94;5024485;28;20056;-58
2024/01/22 03:27:54;;;;;;;4.43;3.20;;;;;;;18.26;36.55;102732.16;5018694;28;20050;-60
2024/01/22 03:30:21;;;;;;;4.47;3.38;;;;;;;18.25;36.63;102733.13;5018272;28;20057;-60
2024/01/22 03:32:49;;;;;;;4.63;3.10;;;;;;;18.24;36.39;102742.97;5021187;28;20389;-60
2024/01/22 03:35:16;;;;;;;4.43;3.00;;;;;;;18.21;36.45;102743.13;5018617;28;20397;-60
2024/01/22 03:37:44;;;;;;;3.90;2.97;;;;;;;18.22;36.51;102749.34;5019429;28;20049;-58
2024/01/22 03:40:11;;;;;;;4.50;2.72;;;;;;;18.21;36.58;102755.66;5018505;28;20045;-58
2024/01/22 03:42:38;;;;;;;4.43;3.33;;;;;;;18.20;36.52;102752.13;5021669;28;20054;-58
2024/01/22 03:45:06;;;;;;;4.65;2.83;;;;;;;18.19;36.39;102758.44;5020177;28;20057;-58
2024/01/22 03:47:34;;;;;;;4.53;3.15;;;;;;;18.19;36.46;102758.44;5016811;28;20057;-58
2024/01/22 03:50:03;;;;;;;4.60;3.38;;;;;;;18.17;36.61;102752.25;5022369;28;20049;-58
2024/01/22 03:52:31;;;;;;;4.78;3.05;;;;;;;18.18;36.53;102753.13;5022049;28;20042;-58
2024/01/22 03:54:58;;;;;;;4.32;3.38;;;;;;;18.16;36.41;102753.22;5020032;28;20515;-59
2024/01/22 03:57:26;;;;;;;4.43;2.92;;;;;;;18.17;36.42;102759.44;5018652;28;20049;-59
2024/01/22 03:59:53;;;;;;;4.07;2.78;;;;;;;18.16;36.42;102758.59;5018140;28;20049;-60
2024/01/22 04:02:21;;;;;;;4.07;2.75;;;;;;;18.16;36.24;102749.69;5021001;28;20041;-60
2024/01/22 04:04:50;;;;;;;4.78;2.72;;;;;;;18.16;36.42;102758.59;5020070;28;20065;-60
2024/01/22 04:07:17;;;;;;;5.57;3.08;;;;;;;18.14;36.46;102757.78;5018164;28;20042;-59
2024/01/22 04:09:45;;;;;;;4.03;3.03;;;;;;;18.14;36.45;102760.44;5018322;28;20037;-58
2024/01/22 04:12:12;;;;;;;4.68;2.90;;;;;;;18.14;36.49;102765.81;5018805;28;20057;-58
2024/01/22 04:14:40;;;;;;;4.20;2.20;;;;;;;18.15;36.45;102769.34;5018302;28;20144;-58
2024/01/22 04:17:07;;;;;;;3.58;2.28;;;;;;;18.14;36.43;102764.94;5018655;28;20492;-59
2024/01/22 04:19:34;;;;;;;4.32;3.17;;;;;;;18.13;36.43;102761.41;5018135;28;20050;-58
2024/01/22 04:22:03;;;;;;;3.42;2.63;;;;;;;18.12;36.45;102762.34;5020836;28;20116;-58
2024/01/22 04:24:30;;;;;;;5.15;2.83;;;;;;;18.12;36.49;102770.41;5019534;28;20403;-58
2024/01/22 04:27:01;;;;;;;5.05;2.90;;;;;;;18.12;36.41;102773.09;5018204;28;20054;-59
2024/01/22 04:29:29;;;;;;;3.83;2.47;;;;;;;18.12;36.33;102767.72;5022155;28;20065;-60
2024/01/22 04:31:56;;;;;;;3.92;2.33;;;;;;;18.12;36.40;102781.13;5021653;28;20392;-60
2024/01/22 04:34:24;;;;;;;5.13;3.00;;;;;;;18.11;36.37;102773.13;5017772;28;20045;-60
2024/01/22 04:36:51;;;;;;;4.95;2.80;;;;;;;18.11;36.33;102775.81;5018225;28;20057;-59
2024/01/22 04:39:19;;;;;;;4.20;2.97;;;;;;;18.11;36.24;102782.06;5018445;28;20053;-60
2024/01/22 04:41:47;;;;;;;5.57;2.88;;;;;;;18.11;36.22;102789.22;5021327;28;20398;-60
2024/01/22 04:44:15;;;;;;;3.90;2.65;;;;;;;18.10;36.33;102783.00;5018518;28;20050;-60
2024/01/22 04:46:42;;;;;;;3.85;2.63;;;;;;;18.09;36.34;102783.94;5018068;28;20041;-60
2024/01/22 04:49:10;;;;;;;3.85;2.40;;;;;;;18.09;36.29;102785.78;5017657;28;20045;-58
2024/01/22 04:51:42;;;;;;;4.03;2.47;;;;;;;18.08;36.20;102795.63;5021263;28;20042;-58
2024/01/22 04:54:13;;;;;;;3.80;2.67;;;;;;;18.08;36.21;102794.75;5018233;28;20069;-58
2024/01/22 04:56:41;;;;;;;4.00;3.10;;;;;;;18.06;36.11;102799.31;5017753;28;20511;-58
2024/01/22 04:59:09;;;;;;;3.90;2.70;;;;;;;18.06;36.14;102793.94;5018446;28;20407;-60
2024/01/22 05:01:36;;;;;;;3.30;2.50;;;;;;;18.03;36.23;102797.66;5021174;28;20045;-58
2024/01/22 05:04:04;;;;;;;3.92;2.70;;;;;;;18.03;36.11;102803.91;5017308;28;20056;-58
2024/01/22 05:06:32;;;;;;;3.67;2.33;;;;;;;18.02;36.11;102803.94;5017648;28;20109;-58
2024/01/22 05:08:59;;;;;;;3.70;2.30;;;;;;;18.02;36.05;102788.72;5018254;28;20049;-58
2024/01/22 05:11:27;;;;;;;3.85;2.50;;;;;;;18.01;36.01;102786.16;5021094;28;20048;-58
2024/01/22 05:13:54;;;;;;;3.67;2.33;;;;;;;18.01;36.14;102786.16;5014778;28;20046;-59
2024/01/22 05:16:22;;;;;;;3.40;2.38;;;;;;;18.01;36.15;102787.00;5020844;28;20046;-59
2024/01/22 05:18:51;;;;;;;3.72;2.30;;;;;;;18.00;36.27;102787.09;5018316;28;20053;-60
2024/01/22 05:21:21;;;;;;;4.30;2.47;;;;;;;18.00;36.21;102785.28;5021617;28;20049;-60
2024/01/22 05:23:49;;;;;;;3.78;2.33;;;;;;;18.00;36.35;102777.25;5017744;28;20050;-60
2024/01/22 05:26:17;;;;;;;4.25;2.33;;;;;;;17.99;36.24;102775.50;5021093;28;20046;-60
2024/01/22 05:28:44;;;;;;;4.47;2.78;;;;;;;17.99;36.23;102778.19;5019240;28;20042;-59
2024/01/22 05:31:12;;;;;;;3.67;2.30;;;;;;;17.99;36.24;102774.66;5020505;28;20057;-60
2024/01/22 05:33:39;;;;;;;3.90;2.20;;;;;;;17.98;36.19;102771.06;5016330;28;20049;-59
2024/01/22 05:36:08;;;;;;;3.80;2.40;;;;;;;17.98;36.29;102771.06;5017972;28;20050;-61
2024/01/22 05:38:41;;;;;;;3.50;2.00;;;;;;;17.96;36.17;102770.28;5019079;28;20500;-60
2024/01/22 05:41:08;;;;;;;5.10;2.83;;;;;;;17.97;36.33;102773.84;5019714;28;20076;-60
2024/01/22 05:43:36;;;;;;;3.85;2.60;;;;;;;17.96;36.20;102769.44;5016407;28;20045;-60
2024/01/22 05:46:03;;;;;;;3.67;2.20;;;;;;;17.95;36.26;102765.03;5017645;28;20057;-60
2024/01/22 05:48:33;;;;;;;4.15;2.53;;;;;;;17.96;36.25;102766.75;5022462;28;20057;-60
2024/01/22 05:51:01;;;;;;;3.25;1.88;;;;;;;17.93;36.27;102759.72;5025877;28;20048;-60
2024/01/22 05:53:29;;;;;;;3.65;2.38;;;;;;;17.94;36.16;102747.19;5017665;28;20050;-60
2024/01/22 05:55:56;;;;;;;4.38;2.60;;;;;;;17.93;36.21;102745.47;5017295;28;20053;-60
2024/01/22 05:58:23;;;;;;;4.63;2.65;;;;;;;17.93;36.18;102746.31;5020653;28;20411;-61
2024/01/22 06:00:51;;;;;;;3.33;2.40;;;;;;;17.92;36.23;102752.63;5019242;28;20399;-62
2024/01/22 06:03:19;;;;;;;3.38;2.25;;;;;;;17.91;36.20;102750.91;5017346;28;20057;-62
2024/01/22 06:05:46;;;;;;;3.70;2.55;;;;;;;17.90;36.23;102749.16;5017366;28;20057;-62
2024/01/22 06:08:14;;;;;;;3.78;2.50;;;;;;;17.90;36.27;102750.97;5020247;28;20484;-61
2024/01/22 06:10:42;;;;;;;3.42;2.00;;;;;;;17.89;36.23;102746.56;5018783;28;20511;-61
2024/01/22 06:13:10;;;;;;;2.70;2.03;;;;;;;17.88;36.20;102744.81;5020589;28;20045;-61
2024/01/22 06:15:37;;;;;;;4.80;2.53;;;;;;;17.87;36.17;102741.28;5018425;28;20034;-61
2024/01/22 06:18:04;;;;;;;5.13;2.55;;;;;;;17.88;36.06;102747.50;5041058;28;20045;-60
2024/01/22 06:20:32;;;;;;;3.60;2.13;;;;;;;17.86;36.13;102752.91;5042162;28;20033;-60
2024/01/22 06:23:03;;;;;;;4.20;2.35;;;;;;;17.87;35.97;102761.84;5021162;28;20057;-60
2024/01/22 06:25:31;;;;;;;3.17;1.95;;;;;;;17.86;36.16;102765.44;5030166;28;20049;-60
2024/01/22 06:27:58;;;;;;;3.63;2.45;;;;;;;17.87;36.07;102764.53;5025125;28;20049;-60
2024/01/22 06:30:25;;;;;;;3.53;2.38;;;;;;;17.86;36.00;102760.97;5022672;28;20061;-60
2024/01/22 06:32:53;;;;;;;3.60;2.10;;;;;;;17.85;36.08;102759.22;5020808;28;20052;-60
2024/01/22 06:35:20;;;;;;;2.75;1.90;;;;;;;17.86;36.01;102752.91;5021610;28;20385;-60
2024/01/22 06:37:50;;;;;;;3.92;2.15;;;;;;;17.84;36.02;102757.50;5024193;28;20411;-60
2024/01/22 06:40:17;;;;;;;3.60;2.30;;;;;;;17.84;36.00;102762.84;5022333;28;20492;-60
2024/01/22 06:42:45;;;;;;;4.00;2.38;;;;;;;17.84;36.17;102746.78;5021132;28;20041;-59
2024/01/22 06:45:12;;;;;;;3.75;2.60;;;;;;;17.83;36.28;102758.44;5020539;28;20050;-59
2024/01/22 06:47:40;;;;;;;3.70;2.47;;;;;;;17.83;36.00;102745.06;5024025;28;20048;-62
2024/01/22 06:50:08;;;;;;;3.08;2.03;;;;;;;17.83;35.97;102753.09;5022283;28;20048;-61
2024/01/22 06:52:36;;;;;;;3.88;2.70;;;;;;;17.83;35.96;102753.09;5019561;28;20050;-61
2024/01/22 06:55:05;;;;;;;4.47;2.85;;;;;;;17.84;36.19;102740.56;5020486;28;20053;-61
2024/01/22 06:57:32;;;;;;;4.70;2.67;;;;;;;17.84;36.14;102753.97;5029629;28;20053;-60
2024/01/22 07:00:06;;;;;;;3.72;2.58;;;;;;;17.84;36.19;102753.97;5022036;28;20045;-59
2024/01/22 07:02:35;;;;;;;3.90;2.53;;;;;;;17.83;36.27;102754.91;5021216;28;20041;-59
2024/01/22 07:05:04;;;;;;;3.90;2.55;;;;;;;17.82;36.21;102750.47;5021396;28;20053;-59
2024/01/22 07:07:32;;;;;;;3.78;2.65;;;;;;;17.81;36.29;102749.59;5024089;28;20046;-58
2024/01/22 07:09:59;;;;;;;4.05;2.80;;;;;;;17.81;36.39;102746.06;5030980;28;20053;-58
2024/01/22 07:12:29;;;;;;;5.25;3.00;;;;;;;17.80;36.41;102737.16;5021587;28;20046;-59
2024/01/22 07:14:58;;;;;;;5.22;3.63;;;;;;;17.79;36.31;102733.63;5019673;28;20401;-59
2024/01/22 07:17:25;;;;;;;4.15;2.60;;;;;;;17.79;36.36;102738.13;5019976;28;20412;-59
2024/01/22 07:19:52;;;;;;;5.68;3.22;;;;;;;17.78;36.46;102745.28;5020888;28;20042;-59
2024/01/22 07:22:20;;;;;;;5.30;3.10;;;;;;;17.78;36.47;102733.66;5020053;28;20050;-59
2024/01/22 07:24:47;;;;;;;4.15;2.85;;;;;;;17.78;36.43;102739.03;5022154;28;20057;-59
2024/01/22 07:27:15;;;;;;;4.18;2.75;;;;;;;17.77;36.52;102735.50;5024539;28;20045;-59
2024/01/22 07:29:42;;;;;;;3.92;2.65;;;;;;;17.76;36.54;102747.16;5020471;28;20407;-60
2024/01/22 07:32:10;;;;;;;5.22;3.67;;;;;;;17.77;36.46;102732.81;5020146;28;20051;-60
2024/01/22 07:34:37;;;;;;;4.75;3.33;;;;;;;17.76;36.58;102735.56;5031722;28;20053;-60
2024/01/22 07:37:06;;;;;;;4.25;2.97;;;;;;;17.77;36.57;102734.63;5023597;28;20052;-59
2024/01/22 07:39:33;;;;;;;4.75;2.83;;;;;;;17.76;36.45;102739.13;5020335;28;20046;-59
2024/01/22 07:42:01;;;;;;;5.53;3.83;;;;;;;17.77;36.64;102738.16;5020688;28;20048;-59
2024/01/22 07:44:28;;;;;;;4.78;2.40;;;;;;;17.76;36.74;102733.75;5022147;28;20049;-59
2024/01/22 07:46:56;;;;;;;5.72;2.95;;;;;;;17.78;36.80;102736.34;5024294;28;20393;-60
2024/01/22 07:49:24;;;;;;;5.10;3.35;;;;;;;17.76;36.47;102728.41;5019201;28;20060;-60
2024/01/22 07:51:51;;;;;;;5.20;2.97;;;;;;;17.77;36.75;102724.78;5020386;28;20050;-61
2024/01/22 07:54:19;;;;;;;5.90;3.50;;;;;;;17.78;36.64;102733.66;5022330;28;20042;-60
2024/01/22 07:56:47;;;;;;;4.45;2.90;;;;;;;17.78;36.68;102726.53;5023643;28;20049;-60
2024/01/22 07:59:14;;;;;;;5.07;3.33;;;;;;;17.78;36.69;102725.63;5020087;28;20050;-60
2024/01/22 08:01:42;;;;;;;4.63;2.85;;;;;;;17.77;36.58;102724.78;5019860;28;20053;-60
2024/01/22 08:04:09;;;;;;;4.47;3.10;;;;;;;17.76;36.54;102731.09;5021592;28;20052;-61
2024/01/22 08:06:36;;;;;;;5.28;2.85;;;;;;;17.76;36.54;102740.94;5023411;28;20057;-60
2024/01/22 08:09:04;;;;;;;4.05;2.60;;;;;;;17.76;36.61;102736.44;5019991;28;20045;-62
2024/01/22 08:11:31;;;;;;;5.60;3.28;;;;;;;17.73;36.77;102743.72;5019038;28;20049;-61
2024/01/22 08:13:59;;;;;;;5.75;3.30;;;;;;;17.74;36.77;102746.38;5021515;28;20507;-61
2024/01/22 08:16:37;;;;;;;4.43;2.95;;;;;;;17.75;36.97;102742.75;5021655;28;20049;-61
2024/01/22 08:19:05;;;;;;;5.18;3.05;;;;;;;17.76;36.94;102743.63;5019323;28;20049;-62
2024/01/22 08:21:32;;;;;;;4.75;2.90;;;;;;;17.78;37.08;102747.97;5022803;28;20061;-61
2024/01/22 08:24:00;;;;;;;4.30;3.13;;;;;;;17.81;37.10;102751.41;5027890;28;20388;-60
2024/01/22 08:26:27;;;;;;;4.65;2.83;;;;;;;17.83;37.16;102738.84;5021429;28;20053;-61
2024/01/22 08:28:54;;;;;;;5.60;3.15;;;;;;;17.84;37.13;102738.75;5019651;28;20053;-61
2024/01/22 08:31:22;;;;;;;4.57;3.00;;;;;;;17.87;37.11;102743.09;5026516;28;20057;-60
2024/01/22 08:33:50;;;;;;;4.50;3.08;;;;;;;17.90;37.06;102734.88;5022136;28;20408;-60
2024/01/22 08:36:18;;;;;;;5.35;3.03;;;;;;;17.90;37.04;102742.91;5021053;28;20050;-60
2024/01/22 08:38:45;;;;;;;5.40;3.35;;;;;;;17.92;36.90;102738.38;5019205;28;20049;-59
2024/01/22 08:41:13;;;;;;;5.07;3.22;;;;;;;17.94;36.99;102741.81;5018970;28;20049;-59
2024/01/22 08:43:40;;;;;;;4.78;3.15;;;;;;;17.94;36.83;102733.78;5022137;28;20423;-60
2024/01/22 08:46:07;;;;;;;5.47;3.05;;;;;;;17.97;36.79;102736.31;5020967;28;20061;-57
2024/01/22 08:48:35;;;;;;;4.28;2.90;;;;;;;17.98;36.75;102727.31;5019033;28;20065;-59
2024/01/22 08:51:02;;;;;;;6.13;2.70;;;;;;;17.98;36.48;102732.69;5018815;28;20045;-59
2024/01/22 08:53:30;;;;;;;6.53;4.03;;;;;;;17.94;36.05;102742.69;5020604;28;20408;-59
2024/01/22 08:55:57;;;;;;;5.30;3.55;;;;;;;17.95;35.46;102740.91;5020780;28;20049;-59
2024/01/22 08:58:25;;;;;;;5.22;3.42;;;;;;;17.95;35.54;102736.41;5018717;28;20515;-58
2024/01/22 09:00:53;;;;;;;4.85;3.03;;;;;;;17.96;35.77;102740.81;5018846;28;20053;-58
2024/01/22 09:03:24;;;;;;;3.90;2.92;;;;;;;17.98;36.03;102732.69;5022153;28;20060;-58
2024/01/22 09:05:52;;;;;;;4.22;3.03;;;;;;;17.97;35.94;102734.50;5019936;28;20053;-58
2024/01/22 09:08:19;;;;;;;6.50;3.22;;;;;;;17.98;35.94;102733.56;5018791;28;20408;-58
2024/01/22 09:10:47;;;;;;;5.00;3.38;;;;;;;17.98;35.87;102735.38;5018587;28;20098;-58
2024/01/22 09:13:14;;;;;;;3.90;2.75;;;;;;;17.99;35.91;102734.44;5027734;28;20100;-58
2024/01/22 09:15:42;;;;;;;4.93;2.55;;;;;;;17.99;35.95;102721.06;5019826;28;20411;-58
2024/01/22 09:18:09;;;;;;;5.50;3.05;;;;;;;17.98;35.83;102722.84;5018350;28;20048;-59
2024/01/22 09:20:36;;;;;;;3.90;2.80;;;;;;;17.99;35.86;102719.22;5018269;28;20400;-60
2024/01/22 09:23:04;;;;;;;4.70;3.40;;;;;;;17.99;35.73;102713.00;5021950;28;20052;-60
2024/01/22 09:25:31;;;;;;;9.25;3.33;;;;;;;17.99;35.81;102707.66;5019727;28;20045;-60
2024/01/22 09:27:59;;;;;;;4.43;3.08;;;;;;;18.00;35.74;102720.09;5018623;28;20073;-59
2024/01/22 09:30:26;;;;;;;3.78;2.65;;;;;;;18.00;35.66;102718.28;5018083;28;20058;-59
2024/01/22 09:32:57;;;;;;;5.55;3.38;;;;;;;18.01;35.72;102729.88;5027729;28;20052;-59
2024/01/22 09:35:26;;;;;;;4.47;3.15;;;;;;;18.01;35.64;102719.16;5019201;28;20054;-57
2024/01/22 09:37:54;;;;;;;4.20;2.92;;;;;;;18.00;35.61;102726.31;5018161;28;20406;-58
2024/01/22 09:40:25;;;;;;;4.93;2.95;;;;;;;18.01;35.72;102725.38;5018742;28;20045;-58
2024/01/22 09:43:03;;;;;;;4.05;2.67;;;;;;;18.00;35.73;102726.31;5022174;28;20487;-58
2024/01/22 09:45:32;;;;;;;5.40;3.13;;;;;;;18.03;35.77;102733.34;5026638;28;20049;-58
2024/01/22 09:48:00;;;;;;;4.57;2.78;;;;;;;18.03;35.71;102730.66;5027470;28;20041;-58
2024/01/22 09:50:28;;;;;;;4.38;2.83;;;;;;;18.04;35.77;102727.03;5024928;28;20049;-58
2024/01/22 09:53:02;;;;;;;3.85;2.75;;;;;;;18.04;35.71;102721.69;5030396;28;20411;-58
2024/01/22 09:55:30;;;;;;;4.70;2.80;;;;;;;18.03;35.82;102723.50;5027643;28;20431;-58
2024/01/22 09:57:59;;;;;;;4.90;3.13;;;;;;;18.04;35.63;102717.19;5028123;28;20053;-58
2024/01/22 10:00:29;;;;;;;4.32;2.83;;;;;;;18.04;35.88;102716.31;5023094;28;20072;-59
2024/01/22 10:03:00;;;;;;;5.57;3.40;;;;;;;18.02;35.57;102723.56;5028700;28;20072;-59
2024/01/22 10:05:27;;;;;;;5.50;3.53;;;;;;;18.01;35.43;102711.09;5027684;28;20072;-59
2024/01/22 10:07:55;;;;;;;4.22;3.03;;;;;;;17.99;35.41;102716.56;5028166;28;20050;-58
2024/01/22 10:10:22;;;;;;;4.25;2.60;;;;;;;17.96;35.79;102714.03;5029754;28;20060;-58
2024/01/22 10:12:57;;;;;;;4.30;3.05;;;;;;;17.97;36.36;102709.53;5029109;28;20404;-58
2024/01/22 10:15:27;;;;;;;3.88;2.65;;;;;;;17.93;36.84;102698.09;5021526;28;20049;-58
2024/01/22 10:18:06;;;;;;;6.63;5.03;;;;;;;17.88;35.67;102701.97;5023572;28;20072;-58
2024/01/22 10:20:33;;;;;;;6.75;5.10;;;;;;;17.74;33.81;102690.13;5023404;28;20049;-58
2024/01/22 10:23:01;;;;;;;7.80;6.18;;;;;;;17.57;32.48;102694.53;5021834;28;20045;-58
2024/01/22 10:25:32;;;;;;;7.47;5.72;;;;;;;17.41;31.71;102695.25;5021339;28;20050;-59
2024/01/22 10:28:16;;;;;;;6.45;5.65;;;;;;;17.25;31.26;102695.13;5020371;28;20050;-58
2024/01/22 10:30:45;;;;;;;7.80;6.32;;;;;;;17.11;30.86;102696.75;5021559;28;20053;-59
2024/01/22 10:33:15;;;;;;;8.05;6.75;;;;;;;17.00;30.82;102695.41;5021456;28;20490;-58
2024/01/22 10:35:45;;;;;;;7.72;6.38;;;;;;;16.90;31.02;102683.41;5023859;28;20492;-59
2024/01/22 10:38:18;;;;;;;7.50;6.70;;;;;;;16.84;30.80;102685.50;5023449;28;20049;-54
2024/01/22 10:40:47;;;;;;;7.88;6.53;;;;;;;16.73;30.78;102681.53;5021253;28;20046;-57
2024/01/22 10:43:26;;;;;;;9.55;7.10;;;;;;;16.69;30.56;102684.34;5021079;28;20038;-56
2024/01/22 10:45:56;;;;;;;11.73;7.40;;;;;;;16.64;30.48;102686.38;5021432;28;20050;-58
2024/01/22 10:48:27;;;;;;;8.02;7.03;;;;;;;16.62;30.58;102688.25;5021311;28;20061;-59
2024/01/22 10:51:10;;;;;;;7.85;6.43;;;;;;;16.59;30.72;102680.38;5021616;28;20053;-56
2024/01/22 10:53:39;;;;;;;7.20;6.32;;;;;;;16.58;30.66;102684.84;5023523;28;20503;-56
2024/01/22 10:56:33;;;;;;;8.98;7.35;;;;;;;16.54;30.68;102675.22;5021123;28;20049;-56
2024/01/22 10:59:10;;;;;;;11.52;8.38;;;;;;;16.55;30.57;102677.81;5021923;28;20061;-54
2024/01/22 11:01:38;;;;;;;8.38;7.20;;;;;;;16.52;30.50;102677.09;5028939;28;20049;-53
2024/01/22 11:04:08;;;;;;;7.65;6.53;;;;;;;16.48;30.64;102665.66;5020903;28;20045;-53
2024/01/22 11:06:42;;;;;;;10.27;7.63;;;;;;;16.45;30.45;102665.81;5020880;28;20412;-58
2024/01/22 11:09:11;;;;;;;11.10;8.40;;;;;;;16.41;30.50;102663.34;5023876;28;20053;-59
2024/01/22 11:11:40;;;;;;;9.48;8.48;;;;;;;16.35;30.30;102660.94;5022710;28;20507;-58
2024/01/22 11:14:08;;;;;;;10.13;8.18;;;;;;;16.34;30.73;102661.88;5022069;28;20049;-58
2024/01/22 11:16:36;;;;;;;10.98;8.82;;;;;;;16.30;30.68;102659.34;5020475;28;20054;-58
2024/01/22 11:19:04;;;;;;;11.40;9.20;;;;;;;16.26;30.47;102660.41;5024004;28;20053;-61
2024/01/22 11:21:42;;;;;;;12.32;8.60;;;;;;;16.34;31.45;102653.88;5021867;28;20048;-59
2024/01/22 11:24:14;;;;;;;8.68;7.78;;;;;;;16.45;33.38;102659.63;5020775;28;20381;-60
2024/01/22 11:26:43;;;;;;;8.15;6.75;;;;;;;16.54;34.60;102652.03;5020908;28;20050;-59
2024/01/22 11:29:14;;;;;;;7.93;6.00;;;;;;;16.64;35.25;102647.13;5023901;28;20045;-59